sensor_id;sensor_type;location;lat;lon;timestamp;temperature;humidity
22081;DHT22;11207;59.512;18.050;2024-01-15T00:00:13;-2.80;99.90
22081;DHT22;11207;59.512;18.050;2024-01-15T00:02:39;-2.80;99.90
22081;DHT22;11207;59.512;18.050;2024-01-15T00:05:04;-2.80;99.90
22081;DHT22;11207;59.512;18.050;2024-01-15T00:07:30;-2.80;99.90
22081;DHT22;11207;59.512;18.050;2024-01-15T00:09:56;-2.80;99.90
22081;DHT22;11207;59.512;18.050;2024-01-15T00:12:21;-2.90;99.90
22081;DHT22;11207;59.512;18.050;2024-01-15T00:14:47;-2.90;99.90
22081;DHT22;11207;59.512;18.050;2024-01-15T00:17:12;-2.80;99.90
22081;DHT22;11207;59.512;18.050;2024-01-15T00:19:38;-2.80;99.90
22081;DHT22;11207;59.512;18.050;2024-01-15T00:22:04;-2.80;99.90
22081;DHT22;11207;59.512;18.050;2024-01-15T00:24:30;-2.90;99.90
22081;DHT22;11207;59.512;18.050;2024-01-15T00:26:55;-3.00;99.90
22081;DHT22;11207;59.512;18.050;2024-01-15T00:29:21;-3.00;99.90
22081;DHT22;11207;59.512;18.050;2024-01-15T00:31:47;-3.00;99.90
22081;DHT22;11207;59.512;18.050;2024-01-15T00:34:12;-3.00;99.90
22081;DHT22;11207;59.512;18.050;2024-01-15T00:36:38;-3.00;99.90
22081;DHT22;11207;59.512;18.050;2024-01-15T00:39:03;-3.10;99.90
22081;DHT22;11207;59.512;18.050;2024-01-15T00:41:31;-3.00;99.90
22081;DHT22;11207;59.512;18.050;2024-01-15T00:43:56;-3.00;99.90
22081;DHT22;11207;59.512;18.050;2024-01-15T00:46:22;-3.10;99.90
22081;DHT22;11207;59.512;18.050;2024-01-15T00:48:48;-3.10;99.90
22081;DHT22;11207;59.512;18.050;2024-01-15T00:51:13;-3.10;99.90
22081;DHT22;11207;59.512;18.050;2024-01-15T00:53:39;-3.10;99.90
22081;DHT22;11207;59.512;18.050;2024-01-15T00:56:05;-3.10;99.90
22081;DHT22;11207;59.512;18.050;2024-01-15T00:58:30;-3.20;99.90
22081;DHT22;11207;59.512;18.050;2024-01-15T01:00:56;-3.10;99.90
22081;DHT22;11207;59.512;18.050;2024-01-15T01:03:21;-3.20;99.90
22081;DHT22;11207;59.512;18.050;2024-01-15T01:05:50;-3.10;99.90
22081;DHT22;11207;59.512;18.050;2024-01-15T01:08:16;-3.10;99.90
22081;DHT22;11207;59.512;18.050;2024-01-15T01:10:42;-3.20;99.90
22081;DHT22;11207;59.512;18.050;2024-01-15T01:13:10;-3.10;99.90
22081;DHT22;11207;59.512;18.050;2024-01-15T01:15:36;-3.10;99.90
22081;DHT22;11207;59.512;18.050;2024-01-15T01:18:02;-3.10;99.90
22081;DHT22;11207;59.512;18.050;2024-01-15T01:20:27;-3.10;99.90
22081;DHT22;11207;59.512;18.050;2024-01-15T01:22:53;-3.20;99.90
22081;DHT22;11207;59.512;18.050;2024-01-15T01:25:18;-3.20;99.90
22081;DHT22;11207;59.512;18.050;2024-01-15T01:27:44;-3.20;99.90
22081;DHT22;11207;59.512;18.050;2024-01-15T01:30:10;-3.10;99.90
22081;DHT22;11207;59.512;18.050;2024-01-15T01:32:35;-3.10;99.90
22081;DHT22;11207;59.512;18.050;2024-01-15T01:35:01;-3.20;99.90
22081;DHT22;11207;59.512;18.050;2024-01-15T01:37:27;-3.20;99.90
22081;DHT22;11207;59.512;18.050;2024-01-15T01:39:52;-3.20;99.90
22081;DHT22;11207;59.512;18.050;2024-01-15T01:42:18;-3.20;99.90
22081;DHT22;11207;59.512;18.050;2024-01-15T01:44:44;-3.20;99.90
22081;DHT22;11207;59.512;18.050;2024-01-15T01:47:09;-3.20;99.90
22081;DHT22;11207;59.512;18.050;2024-01-15T01:49:37;-3.30;99.90
22081;DHT22;11207;59.512;18.050;2024-01-15T01:52:04;-3.30;99.90
22081;DHT22;11207;59.512;18.050;2024-01-15T01:54:31;-3.20;99.90
22081;DHT22;11207;59.512;18.050;2024-01-15T01:56:58;-3.20;99.90
22081;DHT22;11207;59.512;18.050;2024-01-15T01:59:25;-3.20;99.90
22081;DHT22;11207;59.512;18.050;2024-01-15T02:01:53;-3.20;99.90
22081;DHT22;11207;59.512;18.050;2024-01-15T02:04:19;-3.20;99.90
22081;DHT22;11207;59.512;18.050;2024-01-15T02:06:46;-3.20;99.90
22081;DHT22;11207;59.512;18.050;2024-01-15T02:09:12;-3.20;99.90
22081;DHT22;11207;59.512;18.050;2024-01-15T02:11:41;-3.20;99.90
22081;DHT22;11207;59.512;18.050;2024-01-15T02:14:07;-3.30;99.90
22081;DHT22;11207;59.512;18.050;2024-01-15T02:16:33;-3.30;99.90
22081;DHT22;11207;59.512;18.050;2024-01-15T02:18:59;-3.30;99.90
22081;DHT22;11207;59.512;18.050;2024-01-15T02:21:25;-3.30;99.90
22081;DHT22;11207;59.512;18.050;2024-01-15T02:23:54;-3.30;99.90
22081;DHT22;11207;59.512;18.050;2024-01-15T02:26:20;-3.30;99.90
22081;DHT22;11207;59.512;18.050;2024-01-15T02:28:46;-3.30;99.90
22081;DHT22;11207;59.512;18.050;2024-01-15T02:31:11;-3.30;99.90
22081;DHT22;11207;59.512;18.050;2024-01-15T02:33:37;-3.30;99.90
22081;DHT22;11207;59.512;18.050;2024-01-15T02:36:03;-3.30;99.90
22081;DHT22;11207;59.512;18.050;2024-01-15T02:38:28;-3.30;99.90
22081;DHT22;11207;59.512;18.050;2024-01-15T02:40:54;-3.40;99.90
22081;DHT22;11207;59.512;18.050;2024-01-15T02:43:20;-3.40;99.90
22081;DHT22;11207;59.512;18.050;2024-01-15T02:45:45;-3.40;99.90
22081;DHT22;11207;59.512;18.050;2024-01-15T02:48:12;-3.40;99.90
22081;DHT22;11207;59.512;18.050;2024-01-15T02:50:38;-3.50;99.90
22081;DHT22;11207;59.512;18.050;2024-01-15T02:53:03;-3.50;99.90
22081;DHT22;11207;59.512;18.050;2024-01-15T02:55:29;-3.50;99.90
22081;DHT22;11207;59.512;18.050;2024-01-15T02:57:55;-3.40;99.90
22081;DHT22;11207;59.512;18.050;2024-01-15T03:00:20;-3.50;99.90
22081;DHT22;11207;59.512;18.050;2024-01-15T03:02:48;-3.50;99.90
22081;DHT22;11207;59.512;18.050;2024-01-15T03:05:15;-3.40;99.90
22081;DHT22;11207;59.512;18.050;2024-01-15T03:07:41;-3.50;99.90
22081;DHT22;11207;59.512;18.050;2024-01-15T03:10:07;-3.50;99.90
22081;DHT22;11207;59.512;18.050;2024-01-15T03:12:33;-3.50;99.90
22081;DHT22;11207;59.512;18.050;2024-01-15T03:14:58;-3.50;99.90
22081;DHT22;11207;59.512;18.050;2024-01-15T03:17:24;-3.40;99.90
22081;DHT22;11207;59.512;18.050;2024-01-15T03:19:49;-3.40;99.90
22081;DHT22;11207;59.512;18.050;2024-01-15T03:22:16;-3.40;99.90
22081;DHT22;11207;59.512;18.050;2024-01-15T03:24:41;-3.40;99.90
22081;DHT22;11207;59.512;18.050;2024-01-15T03:27:07;-3.40;99.90
22081;DHT22;11207;59.512;18.050;2024-01-15T03:29:33;-3.40;99.90
22081;DHT22;11207;59.512;18.050;2024-01-15T03:31:58;-3.50;99.90
22081;DHT22;11207;59.512;18.050;2024-01-15T03:34:24;-3.50;99.90
22081;DHT22;11207;59.512;18.050;2024-01-15T03:36:50;-3.50;99.90
22081;DHT22;11207;59.512;18.050;2024-01-15T03:39:15;-3.40;99.90
22081;DHT22;11207;59.512;18.050;2024-01-15T03:41:41;-3.40;99.90
22081;DHT22;11207;59.512;18.050;2024-01-15T03:44:06;-3.50;99.90
22081;DHT22;11207;59.512;18.050;2024-01-15T03:46:32;-3.50;99.90
22081;DHT22;11207;59.512;18.050;2024-01-15T03:48:58;-3.50;99.90
22081;DHT22;11207;59.512;18.050;2024-01-15T03:51:24;-3.60;99.90
22081;DHT22;11207;59.512;18.050;2024-01-15T03:53:50;-3.50;99.90
22081;DHT22;11207;59.512;18.050;2024-01-15T03:56:15;-3.50;99.90
22081;DHT22;11207;59.512;18.050;2024-01-15T03:58:41;-3.50;99.90
22081;DHT22;11207;59.512;18.050;2024-01-15T04:01:10;-3.50;99.90
22081;DHT22;11207;59.512;18.050;2024-01-15T04:03:36;-3.50;99.90
22081;DHT22;11207;59.512;18.050;2024-01-15T04:06:02;-3.60;99.90
22081;DHT22;11207;59.512;18.050;2024-01-15T04:08:28;-3.50;99.90
22081;DHT22;11207;59.512;18.050;2024-01-15T04:10:55;-3.50;99.90
22081;DHT22;11207;59.512;18.050;2024-01-15T04:13:21;-3.50;99.90
22081;DHT22;11207;59.512;18.050;2024-01-15T04:15:46;-3.50;99.90
22081;DHT22;11207;59.512;18.050;2024-01-15T04:18:12;-3.60;99.90
22081;DHT22;11207;59.512;18.050;2024-01-15T04:20:38;-3.60;99.90
22081;DHT22;11207;59.512;18.050;2024-01-15T04:23:04;-3.60;99.90
22081;DHT22;11207;59.512;18.050;2024-01-15T04:25:30;-3.60;99.90
22081;DHT22;11207;59.512;18.050;2024-01-15T04:27:55;-3.60;99.90
22081;DHT22;11207;59.512;18.050;2024-01-15T04:30:21;-3.50;99.90
22081;DHT22;11207;59.512;18.050;2024-01-15T04:32:46;-3.50;99.90
22081;DHT22;11207;59.512;18.050;2024-01-15T04:35:12;-3.50;99.90
22081;DHT22;11207;59.512;18.050;2024-01-15T04:37:39;-3.50;99.90
22081;DHT22;11207;59.512;18.050;2024-01-15T04:40:05;-3.50;99.90
22081;DHT22;11207;59.512;18.050;2024-01-15T04:42:30;-3.60;99.90
22081;DHT22;11207;59.512;18.050;2024-01-15T04:44:56;-3.60;99.90
22081;DHT22;11207;59.512;18.050;2024-01-15T04:47:22;-3.60;99.90
22081;DHT22;11207;59.512;18.050;2024-01-15T04:49:47;-3.60;99.90
22081;DHT22;11207;59.512;18.050;2024-01-15T04:52:14;-3.60;99.90
22081;DHT22;11207;59.512;18.050;2024-01-15T04:54:40;-3.60;99.90
22081;DHT22;11207;59.512;18.050;2024-01-15T04:57:05;-3.60;99.90
22081;DHT22;11207;59.512;18.050;2024-01-15T04:59:31;-3.70;99.90
22081;DHT22;11207;59.512;18.050;2024-01-15T05:01:57;-3.70;99.90
22081;DHT22;11207;59.512;18.050;2024-01-15T05:04:22;-3.70;99.90
22081;DHT22;11207;59.512;18.050;2024-01-15T05:06:50;-3.70;99.90
22081;DHT22;11207;59.512;18.050;2024-01-15T05:09:15;-3.70;99.90
22081;DHT22;11207;59.512;18.050;2024-01-15T05:11:41;-3.70;99.90
22081;DHT22;11207;59.512;18.050;2024-01-15T05:14:07;-3.70;99.90
22081;DHT22;11207;59.512;18.050;2024-01-15T05:16:32;-3.70;99.90
22081;DHT22;11207;59.512;18.050;2024-01-15T05:18:58;-3.70;99.90
22081;DHT22;11207;59.512;18.050;2024-01-15T05:21:23;-3.70;99.90
22081;DHT22;11207;59.512;18.050;2024-01-15T05:23:49;-3.70;99.90
22081;DHT22;11207;59.512;18.050;2024-01-15T05:26:15;-3.70;99.90
22081;DHT22;11207;59.512;18.050;2024-01-15T05:28:43;-3.80;99.90
22081;DHT22;11207;59.512;18.050;2024-01-15T05:31:09;-3.80;99.90
22081;DHT22;11207;59.512;18.050;2024-01-15T05:33:36;-3.80;99.90
22081;DHT22;11207;59.512;18.050;2024-01-15T05:36:01;-3.80;99.90
22081;DHT22;11207;59.512;18.050;2024-01-15T05:38:27;-3.70;99.90
22081;DHT22;11207;59.512;18.050;2024-01-15T05:40:53;-3.70;99.90
22081;DHT22;11207;59.512;18.050;2024-01-15T05:43:19;-3.80;99.90
22081;DHT22;11207;59.512;18.050;2024-01-15T05:45:45;-3.70;99.90
22081;DHT22;11207;59.512;18.050;2024-01-15T05:48:11;-3.70;99.90
22081;DHT22;11207;59.512;18.050;2024-01-15T05:50:38;-3.70;99.90
22081;DHT22;11207;59.512;18.050;2024-01-15T05:53:04;-3.80;99.90
22081;DHT22;11207;59.512;18.050;2024-01-15T05:55:29;-3.90;99.90
22081;DHT22;11207;59.512;18.050;2024-01-15T05:57:55;-4.00;99.90
22081;DHT22;11207;59.512;18.050;2024-01-15T06:00:20;-3.90;99.90
22081;DHT22;11207;59.512;18.050;2024-01-15T06:02:46;-3.90;99.90
22081;DHT22;11207;59.512;18.050;2024-01-15T06:05:12;-3.90;99.90
22081;DHT22;11207;59.512;18.050;2024-01-15T06:07:37;-3.90;99.90
22081;DHT22;11207;59.512;18.050;2024-01-15T06:10:03;-3.90;99.90
22081;DHT22;11207;59.512;18.050;2024-01-15T06:12:32;-3.90;99.90
22081;DHT22;11207;59.512;18.050;2024-01-15T06:14:59;-3.90;99.90
22081;DHT22;11207;59.512;18.050;2024-01-15T06:17:24;-3.90;99.90
22081;DHT22;11207;59.512;18.050;2024-01-15T06:19:50;-4.00;99.90
22081;DHT22;11207;59.512;18.050;2024-01-15T06:22:16;-4.00;99.90
22081;DHT22;11207;59.512;18.050;2024-01-15T06:24:42;-4.10;99.90
22081;DHT22;11207;59.512;18.050;2024-01-15T06:27:08;-4.00;99.90
22081;DHT22;11207;59.512;18.050;2024-01-15T06:29:33;-4.00;99.90
22081;DHT22;11207;59.512;18.050;2024-01-15T06:32:02;-4.10;99.90
22081;DHT22;11207;59.512;18.050;2024-01-15T06:34:29;-4.10;99.90
22081;DHT22;11207;59.512;18.050;2024-01-15T06:36:55;-4.10;99.90
22081;DHT22;11207;59.512;18.050;2024-01-15T06:39:20;-4.20;99.90
22081;DHT22;11207;59.512;18.050;2024-01-15T06:41:46;-4.20;99.90
22081;DHT22;11207;59.512;18.050;2024-01-15T06:44:12;-4.20;99.90
22081;DHT22;11207;59.512;18.050;2024-01-15T06:46:47;-4.20;99.90
22081;DHT22;11207;59.512;18.050;2024-01-15T06:49:13;-4.20;99.90
22081;DHT22;11207;59.512;18.050;2024-01-15T06:51:39;-4.20;99.90
22081;DHT22;11207;59.512;18.050;2024-01-15T06:54:05;-4.20;99.90
22081;DHT22;11207;59.512;18.050;2024-01-15T06:56:31;-4.10;99.90
22081;DHT22;11207;59.512;18.050;2024-01-15T06:58:57;-4.10;99.90
22081;DHT22;11207;59.512;18.050;2024-01-15T07:01:23;-4.10;99.90
22081;DHT22;11207;59.512;18.050;2024-01-15T07:03:49;-4.20;99.90
22081;DHT22;11207;59.512;18.050;2024-01-15T07:06:14;-4.20;99.90
22081;DHT22;11207;59.512;18.050;2024-01-15T07:08:40;-4.20;99.90
22081;DHT22;11207;59.512;18.050;2024-01-15T07:11:07;-4.20;99.90
22081;DHT22;11207;59.512;18.050;2024-01-15T07:13:32;-4.10;99.90
22081;DHT22;11207;59.512;18.050;2024-01-15T07:15:58;-4.10;99.90
22081;DHT22;11207;59.512;18.050;2024-01-15T07:18:24;-4.10;99.90
22081;DHT22;11207;59.512;18.050;2024-01-15T07:20:50;-4.20;99.90
22081;DHT22;11207;59.512;18.050;2024-01-15T07:23:16;-4.20;99.90
22081;DHT22;11207;59.512;18.050;2024-01-15T07:25:42;-4.20;99.90
22081;DHT22;11207;59.512;18.050;2024-01-15T07:28:08;-4.20;99.90
22081;DHT22;11207;59.512;18.050;2024-01-15T07:30:34;-4.10;99.90
22081;DHT22;11207;59.512;18.050;2024-01-15T07:32:59;-4.10;99.90
22081;DHT22;11207;59.512;18.050;2024-01-15T07:35:25;-4.20;99.90
22081;DHT22;11207;59.512;18.050;2024-01-15T07:37:51;-4.20;99.90
22081;DHT22;11207;59.512;18.050;2024-01-15T07:40:16;-4.10;99.90
22081;DHT22;11207;59.512;18.050;2024-01-15T07:42:42;-4.20;99.90
22081;DHT22;11207;59.512;18.050;2024-01-15T07:45:10;-4.20;99.90
22081;DHT22;11207;59.512;18.050;2024-01-15T07:47:36;-4.20;99.90
22081;DHT22;11207;59.512;18.050;2024-01-15T07:50:02;-4.20;99.90
22081;DHT22;11207;59.512;18.050;2024-01-15T07:52:28;-4.20;99.90
22081;DHT22;11207;59.512;18.050;2024-01-15T07:54:53;-4.10;99.90
22081;DHT22;11207;59.512;18.050;2024-01-15T07:57:20;-4.10;99.90
22081;DHT22;11207;59.512;18.050;2024-01-15T07:59:45;-4.10;99.90
22081;DHT22;11207;59.512;18.050;2024-01-15T08:02:11;-4.20;99.90
22081;DHT22;11207;59.512;18.050;2024-01-15T08:04:38;-4.20;99.90
22081;DHT22;11207;59.512;18.050;2024-01-15T08:07:06;-4.30;99.90
22081;DHT22;11207;59.512;18.050;2024-01-15T08:09:34;-4.20;99.90
22081;DHT22;11207;59.512;18.050;2024-01-15T08:12:00;-4.30;99.90
22081;DHT22;11207;59.512;18.050;2024-01-15T08:14:26;-4.20;99.90
22081;DHT22;11207;59.512;18.050;2024-01-15T08:16:52;-4.20;99.90
22081;DHT22;11207;59.512;18.050;2024-01-15T08:19:17;-4.20;99.90
22081;DHT22;11207;59.512;18.050;2024-01-15T08:21:43;-4.10;99.90
22081;DHT22;11207;59.512;18.050;2024-01-15T08:24:09;-4.20;99.90
22081;DHT22;11207;59.512;18.050;2024-01-15T08:26:34;-4.20;99.90
22081;DHT22;11207;59.512;18.050;2024-01-15T08:29:00;-4.10;99.90
22081;DHT22;11207;59.512;18.050;2024-01-15T08:31:26;-4.10;99.90
22081;DHT22;11207;59.512;18.050;2024-01-15T08:33:52;-4.10;99.90
22081;DHT22;11207;59.512;18.050;2024-01-15T08:36:18;-4.10;99.90
22081;DHT22;11207;59.512;18.050;2024-01-15T08:38:44;-4.10;99.90
22081;DHT22;11207;59.512;18.050;2024-01-15T08:41:10;-4.10;99.90
22081;DHT22;11207;59.512;18.050;2024-01-15T08:43:36;-4.00;99.90
22081;DHT22;11207;59.512;18.050;2024-01-15T08:46:02;-4.00;99.90
22081;DHT22;11207;59.512;18.050;2024-01-15T08:48:29;-4.10;99.90
22081;DHT22;11207;59.512;18.050;2024-01-15T08:50:55;-4.10;99.90
22081;DHT22;11207;59.512;18.050;2024-01-15T08:53:22;-4.10;99.90
22081;DHT22;11207;59.512;18.050;2024-01-15T08:55:47;-4.10;99.90
22081;DHT22;11207;59.512;18.050;2024-01-15T08:58:13;-4.00;99.90
22081;DHT22;11207;59.512;18.050;2024-01-15T09:00:39;-4.00;99.90
22081;DHT22;11207;59.512;18.050;2024-01-15T09:03:05;-4.00;99.90
22081;DHT22;11207;59.512;18.050;2024-01-15T09:05:31;-4.00;99.90
22081;DHT22;11207;59.512;18.050;2024-01-15T09:07:56;-4.00;99.90
22081;DHT22;11207;59.512;18.050;2024-01-15T09:10:22;-4.00;99.90
22081;DHT22;11207;59.512;18.050;2024-01-15T09:12:48;-4.00;99.90
22081;DHT22;11207;59.512;18.050;2024-01-15T09:15:14;-4.00;99.90
22081;DHT22;11207;59.512;18.050;2024-01-15T09:17:40;-4.00;99.90
22081;DHT22;11207;59.512;18.050;2024-01-15T09:20:06;-4.00;99.90
22081;DHT22;11207;59.512;18.050;2024-01-15T09:22:32;-4.00;99.90
22081;DHT22;11207;59.512;18.050;2024-01-15T09:24:58;-4.00;99.90
22081;DHT22;11207;59.512;18.050;2024-01-15T09:27:24;-4.00;99.90
22081;DHT22;11207;59.512;18.050;2024-01-15T09:29:52;-4.00;99.90
22081;DHT22;11207;59.512;18.050;2024-01-15T09:32:17;-3.90;99.90
22081;DHT22;11207;59.512;18.050;2024-01-15T09:34:44;-3.80;99.90
22081;DHT22;11207;59.512;18.050;2024-01-15T09:37:11;-3.80;99.90
22081;DHT22;11207;59.512;18.050;2024-01-15T09:39:38;-3.90;99.90
22081;DHT22;11207;59.512;18.050;2024-01-15T09:42:04;-3.90;99.90
22081;DHT22;11207;59.512;18.050;2024-01-15T09:44:30;-3.90;99.90
22081;DHT22;11207;59.512;18.050;2024-01-15T09:46:56;-3.90;99.90
22081;DHT22;11207;59.512;18.050;2024-01-15T09:49:22;-3.80;99.90
22081;DHT22;11207;59.512;18.050;2024-01-15T09:51:49;-3.90;99.90
22081;DHT22;11207;59.512;18.050;2024-01-15T09:54:15;-3.80;99.90
22081;DHT22;11207;59.512;18.050;2024-01-15T09:56:45;-3.80;99.90
22081;DHT22;11207;59.512;18.050;2024-01-15T09:59:13;-3.80;99.90
22081;DHT22;11207;59.512;18.050;2024-01-15T10:01:40;-3.90;99.90
22081;DHT22;11207;59.512;18.050;2024-01-15T10:04:06;-3.90;99.90
22081;DHT22;11207;59.512;18.050;2024-01-15T10:06:32;-3.90;99.90
22081;DHT22;11207;59.512;18.050;2024-01-15T10:08:59;-3.80;99.90
22081;DHT22;11207;59.512;18.050;2024-01-15T10:11:25;-3.80;99.90
22081;DHT22;11207;59.512;18.050;2024-01-15T10:13:50;-3.80;99.90
22081;DHT22;11207;59.512;18.050;2024-01-15T10:16:19;-3.70;99.90
22081;DHT22;11207;59.512;18.050;2024-01-15T10:18:44;-3.80;99.90
22081;DHT22;11207;59.512;18.050;2024-01-15T10:21:10;-3.80;99.90
22081;DHT22;11207;59.512;18.050;2024-01-15T10:23:35;-3.80;99.90
22081;DHT22;11207;59.512;18.050;2024-01-15T10:26:02;-3.80;99.90
22081;DHT22;11207;59.512;18.050;2024-01-15T10:28:28;-3.80;99.90
22081;DHT22;11207;59.512;18.050;2024-01-15T10:30:57;-3.80;99.90
22081;DHT22;11207;59.512;18.050;2024-01-15T10:33:23;-3.80;99.90
22081;DHT22;11207;59.512;18.050;2024-01-15T10:36:00;-3.80;99.90
22081;DHT22;11207;59.512;18.050;2024-01-15T10:38:26;-3.80;99.90
22081;DHT22;11207;59.512;18.050;2024-01-15T10:40:53;-3.70;99.90
22081;DHT22;11207;59.512;18.050;2024-01-15T10:43:20;-3.70;99.90
22081;DHT22;11207;59.512;18.050;2024-01-15T10:45:46;-3.70;99.90
22081;DHT22;11207;59.512;18.050;2024-01-15T10:48:13;-3.70;99.90
22081;DHT22;11207;59.512;18.050;2024-01-15T10:50:38;-3.70;99.90
22081;DHT22;11207;59.512;18.050;2024-01-15T10:53:05;-3.70;99.90
22081;DHT22;11207;59.512;18.050;2024-01-15T10:55:31;-3.70;99.90
22081;DHT22;11207;59.512;18.050;2024-01-15T10:57:58;-3.80;99.90
22081;DHT22;11207;59.512;18.050;2024-01-15T11:00:26;-3.70;99.90
22081;DHT22;11207;59.512;18.050;2024-01-15T11:02:52;-3.70;99.90
22081;DHT22;11207;59.512;18.050;2024-01-15T11:05:22;-3.70;99.90
22081;DHT22;11207;59.512;18.050;2024-01-15T11:07:54;-3.80;99.90
22081;DHT22;11207;59.512;18.050;2024-01-15T11:10:45;-3.80;99.90
22081;DHT22;11207;59.512;18.050;2024-01-15T11:13:22;-3.80;99.90
22081;DHT22;11207;59.512;18.050;2024-01-15T11:16:17;-3.80;99.90
22081;DHT22;11207;59.512;18.050;2024-01-15T11:19:03;-3.80;99.90
22081;DHT22;11207;59.512;18.050;2024-01-15T11:21:31;-3.80;99.90
22081;DHT22;11207;59.512;18.050;2024-01-15T11:23:59;-3.80;99.90
22081;DHT22;11207;59.512;18.050;2024-01-15T11:26:44;-3.80;99.90
22081;DHT22;11207;59.512;18.050;2024-01-15T11:32:03;-3.80;99.90
22081;DHT22;11207;59.512;18.050;2024-01-15T11:35:09;-3.90;99.90
22081;DHT22;11207;59.512;18.050;2024-01-15T11:40:42;-3.80;99.90
22081;DHT22;11207;59.512;18.050;2024-01-15T11:43:11;-3.90;99.90
22081;DHT22;11207;59.512;18.050;2024-01-15T11:45:39;-3.80;99.90
22081;DHT22;11207;59.512;18.050;2024-01-15T11:48:13;-3.90;99.90
22081;DHT22;11207;59.512;18.050;2024-01-15T11:50:50;-3.80;99.90
22081;DHT22;11207;59.512;18.050;2024-01-15T11:53:16;-3.80;99.90
22081;DHT22;11207;59.512;18.050;2024-01-15T11:55:44;-3.90;99.90
22081;DHT22;11207;59.512;18.050;2024-01-15T11:58:11;-3.90;99.90
22081;DHT22;11207;59.512;18.050;2024-01-15T12:00:42;-3.90;99.90
22081;DHT22;11207;59.512;18.050;2024-01-15T12:03:08;-3.90;99.90
22081;DHT22;11207;59.512;18.050;2024-01-15T12:05:40;-3.80;99.90
22081;DHT22;11207;59.512;18.050;2024-01-15T12:08:07;-3.90;99.90
22081;DHT22;11207;59.512;18.050;2024-01-15T12:10:37;-3.90;99.90
22081;DHT22;11207;59.512;18.050;2024-01-15T12:15:37;-3.90;99.90
22081;DHT22;11207;59.512;18.050;2024-01-15T12:18:07;-3.90;99.90
22081;DHT22;11207;59.512;18.050;2024-01-15T12:20:33;-3.90;99.90
22081;DHT22;11207;59.512;18.050;2024-01-15T12:23:00;-4.00;99.90
22081;DHT22;11207;59.512;18.050;2024-01-15T12:25:26;-3.90;99.90
22081;DHT22;11207;59.512;18.050;2024-01-15T12:27:53;-4.00;99.90
22081;DHT22;11207;59.512;18.050;2024-01-15T12:30:19;-4.00;99.90
22081;DHT22;11207;59.512;18.050;2024-01-15T12:32:45;-4.00;99.90
22081;DHT22;11207;59.512;18.050;2024-01-15T12:35:12;-3.90;99.90
22081;DHT22;11207;59.512;18.050;2024-01-15T12:37:42;-4.10;99.90
22081;DHT22;11207;59.512;18.050;2024-01-15T12:40:09;-4.00;99.90
22081;DHT22;11207;59.512;18.050;2024-01-15T12:42:42;-4.10;99.90
22081;DHT22;11207;59.512;18.050;2024-01-15T12:45:09;-4.00;99.90
22081;DHT22;11207;59.512;18.050;2024-01-15T12:47:36;-4.00;99.90
22081;DHT22;11207;59.512;18.050;2024-01-15T12:50:02;-4.00;99.90
22081;DHT22;11207;59.512;18.050;2024-01-15T12:52:29;-4.00;99.90
22081;DHT22;11207;59.512;18.050;2024-01-15T12:54:55;-4.00;99.90
22081;DHT22;11207;59.512;18.050;2024-01-15T12:57:20;-4.00;99.90
22081;DHT22;11207;59.512;18.050;2024-01-15T12:59:46;-4.00;99.90
22081;DHT22;11207;59.512;18.050;2024-01-15T13:02:13;-4.00;99.90
22081;DHT22;11207;59.512;18.050;2024-01-15T13:04:39;-4.00;99.90
22081;DHT22;11207;59.512;18.050;2024-01-15T13:07:08;-4.00;99.90
22081;DHT22;11207;59.512;18.050;2024-01-15T13:09:34;-4.10;99.90
22081;DHT22;11207;59.512;18.050;2024-01-15T13:12:01;-4.10;99.90
22081;DHT22;11207;59.512;18.050;2024-01-15T13:14:28;-4.10;99.90
22081;DHT22;11207;59.512;18.050;2024-01-15T13:16:54;-4.10;99.90
22081;DHT22;11207;59.512;18.050;2024-01-15T13:19:20;-4.10;99.90
22081;DHT22;11207;59.512;18.050;2024-01-15T13:21:47;-4.10;99.90
22081;DHT22;11207;59.512;18.050;2024-01-15T13:24:13;-4.10;99.90
22081;DHT22;11207;59.512;18.050;2024-01-15T13:26:39;-4.10;99.90
22081;DHT22;11207;59.512;18.050;2024-01-15T13:29:05;-4.10;99.90
22081;DHT22;11207;59.512;18.050;2024-01-15T13:31:31;-4.20;99.90
22081;DHT22;11207;59.512;18.050;2024-01-15T13:33:57;-4.20;99.90
22081;DHT22;11207;59.512;18.050;2024-01-15T13:36:26;-4.20;99.90
22081;DHT22;11207;59.512;18.050;2024-01-15T13:38:53;-4.20;99.90
22081;DHT22;11207;59.512;18.050;2024-01-15T13:41:19;-4.20;99.90
22081;DHT22;11207;59.512;18.050;2024-01-15T13:43:49;-4.20;99.90
22081;DHT22;11207;59.512;18.050;2024-01-15T13:46:16;-4.30;99.90
22081;DHT22;11207;59.512;18.050;2024-01-15T13:48:42;-4.30;99.90
22081;DHT22;11207;59.512;18.050;2024-01-15T13:51:08;-4.30;99.90
22081;DHT22;11207;59.512;18.050;2024-01-15T13:53:34;-4.30;99.90
22081;DHT22;11207;59.512;18.050;2024-01-15T13:55:59;-4.20;99.90
22081;DHT22;11207;59.512;18.050;2024-01-15T13:58:25;-4.20;99.90
22081;DHT22;11207;59.512;18.050;2024-01-15T14:00:51;-4.30;99.90
22081;DHT22;11207;59.512;18.050;2024-01-15T14:03:17;-4.30;99.90
22081;DHT22;11207;59.512;18.050;2024-01-15T14:05:44;-4.20;99.90
22081;DHT22;11207;59.512;18.050;2024-01-15T14:08:10;-4.30;99.90
22081;DHT22;11207;59.512;18.050;2024-01-15T14:10:36;-4.30;99.90
22081;DHT22;11207;59.512;18.050;2024-01-15T14:13:02;-4.30;99.90
22081;DHT22;11207;59.512;18.050;2024-01-15T14:15:28;-4.40;99.90
22081;DHT22;11207;59.512;18.050;2024-01-15T14:17:54;-4.40;99.90
22081;DHT22;11207;59.512;18.050;2024-01-15T14:20:20;-4.40;99.90
22081;DHT22;11207;59.512;18.050;2024-01-15T14:22:46;-4.50;99.90
22081;DHT22;11207;59.512;18.050;2024-01-15T14:25:11;-4.50;99.90
22081;DHT22;11207;59.512;18.050;2024-01-15T14:27:37;-4.40;99.90
22081;DHT22;11207;59.512;18.050;2024-01-15T14:30:03;-4.40;99.90
22081;DHT22;11207;59.512;18.050;2024-01-15T14:32:28;-4.40;99.90
22081;DHT22;11207;59.512;18.050;2024-01-15T14:34:54;-4.50;99.90
22081;DHT22;11207;59.512;18.050;2024-01-15T14:37:22;-4.40;99.90
22081;DHT22;11207;59.512;18.050;2024-01-15T14:39:47;-4.50;99.90
22081;DHT22;11207;59.512;18.050;2024-01-15T14:42:13;-4.50;99.90
22081;DHT22;11207;59.512;18.050;2024-01-15T14:44:38;-4.50;99.90
22081;DHT22;11207;59.512;18.050;2024-01-15T14:47:06;-4.50;99.90
22081;DHT22;11207;59.512;18.050;2024-01-15T14:49:33;-4.50;99.90
22081;DHT22;11207;59.512;18.050;2024-01-15T14:51:59;-4.60;99.90
22081;DHT22;11207;59.512;18.050;2024-01-15T14:54:24;-4.60;99.90
22081;DHT22;11207;59.512;18.050;2024-01-15T14:56:51;-4.50;99.90
22081;DHT22;11207;59.512;18.050;2024-01-15T14:59:17;-4.50;99.90
22081;DHT22;11207;59.512;18.050;2024-01-15T15:01:43;-4.50;99.90
22081;DHT22;11207;59.512;18.050;2024-01-15T15:04:08;-4.60;99.90
22081;DHT22;11207;59.512;18.050;2024-01-15T15:06:36;-4.70;99.90
22081;DHT22;11207;59.512;18.050;2024-01-15T15:09:02;-4.60;99.90
22081;DHT22;11207;59.512;18.050;2024-01-15T15:11:34;-4.70;99.90
22081;DHT22;11207;59.512;18.050;2024-01-15T15:14:00;-4.70;99.90
22081;DHT22;11207;59.512;18.050;2024-01-15T15:16:26;-4.70;99.90
22081;DHT22;11207;59.512;18.050;2024-01-15T15:18:53;-4.70;99.90